Time;durP1;ratioP1;P1;durP2;ratioP2;P2;SDS_P1;SDS_P2;PMS_P1;PMS_P2;Temp;Humidity;BMP_temperature;BMP_pressure;BME280_temperature;BME280_humidity;BME280_pressure;Samples;Min_cycle;Max_cycle;Signal;HPM_P1;HPM_P2
2022/06/26 00:01:22;;;;;;;12.20;9.10;;;;;;;23.77;55.68;100605.38;5012982;28;20429;-67
2022/06/26 00:03:48;;;;;;;10.88;8.20;;;;;;;23.64;55.88;100615.28;5014720;28;20030;-68
2022/06/26 00:06:13;;;;;;;12.75;9.13;;;;;;;23.57;56.18;100607.66;4980767;28;20033;-66
2022/06/26 00:08:39;;;;;;;13.05;9.00;;;;;;;23.47;56.52;100613.81;4998487;28;20049;-68
2022/06/26 00:11:04;;;;;;;9.65;7.75;;;;;;;23.46;56.26;100614.75;5014952;28;20037;-68
2022/06/26 00:13:30;;;;;;;10.57;9.00;;;;;;;23.49;56.34;100611.88;5016584;28;20034;-68
2022/06/26 00:15:55;;;;;;;13.55;10.80;;;;;;;23.40;56.92;100612.53;5012974;28;20037;-67
2022/06/26 00:18:23;;;;;;;11.43;9.65;;;;;;;23.39;56.90;100611.69;5034701;28;20037;-68
2022/06/26 00:20:49;;;;;;;10.57;8.05;;;;;;;23.34;56.75;100616.53;5016567;28;20029;-69
2022/06/26 00:23:14;;;;;;;10.73;9.32;;;;;;;23.46;56.73;100612.09;5031709;28;20165;-68
2022/06/26 00:25:39;;;;;;;9.35;8.00;;;;;;;23.37;56.94;100621.66;5033911;28;20446;-68
2022/06/26 00:28:05;;;;;;;9.43;7.55;;;;;;;23.41;56.67;100617.78;5033879;28;20474;-68
2022/06/26 00:30:30;;;;;;;8.77;7.20;;;;;;;23.35;56.98;100621.78;5014188;28;20029;-68
2022/06/26 00:32:56;;;;;;;12.85;7.72;;;;;;;23.32;57.19;100621.13;5033489;28;20037;-68
2022/06/26 00:35:21;;;;;;;11.13;8.10;;;;;;;23.26;57.27;100617.06;5033900;28;20034;-68
2022/06/26 00:37:48;;;;;;;10.32;8.18;;;;;;;23.21;57.38;100624.56;5032148;28;20038;-68
2022/06/26 00:40:13;;;;;;;8.20;6.55;;;;;;;23.18;57.54;100624.78;4998630;28;20037;-69
2022/06/26 00:42:39;;;;;;;8.80;7.05;;;;;;;23.18;57.68;100623.91;5033882;28;20075;-68
2022/06/26 00:45:05;;;;;;;11.00;7.75;;;;;;;23.18;57.58;100624.78;5031826;28;20036;-68
2022/06/26 00:47:31;;;;;;;9.20;6.38;;;;;;;23.25;57.48;100627.88;5033537;28;20041;-68
2022/06/26 00:49:57;;;;;;;8.50;7.50;;;;;;;23.15;57.89;100627.69;5031298;28;20048;-65
2022/06/26 00:52:23;;;;;;;8.57;7.78;;;;;;;23.17;57.74;100628.41;5031995;28;20052;-68
2022/06/26 00:54:50;;;;;;;9.07;7.35;;;;;;;23.09;57.82;100625.41;5015777;28;20061;-67
2022/06/26 00:57:15;;;;;;;7.88;7.15;;;;;;;23.18;57.56;100632.84;5032117;28;20037;-69
2022/06/26 00:59:42;;;;;;;9.02;8.10;;;;;;;23.29;57.25;100622.19;5048904;28;20034;-69
2022/06/26 01:02:08;;;;;;;8.52;7.60;;;;;;;23.16;57.67;100626.72;5028611;28;20048;-68
2022/06/26 01:04:34;;;;;;;9.85;8.80;;;;;;;23.14;57.64;100630.44;5013066;28;20037;-69
2022/06/26 01:07:00;;;;;;;9.73;8.07;;;;;;;23.06;58.02;100625.63;5034070;28;20029;-68
2022/06/26 01:09:26;;;;;;;12.43;7.90;;;;;;;23.04;57.93;100633.78;5033165;28;20136;-69
2022/06/26 01:11:51;;;;;;;8.80;7.30;;;;;;;23.04;57.80;100627.56;4998382;28;20038;-68
2022/06/26 01:14:17;;;;;;;8.07;7.05;;;;;;;23.05;57.84;100632.81;5015387;28;20030;-68
2022/06/26 01:16:43;;;;;;;9.18;6.43;;;;;;;23.08;57.62;100621.03;5016086;28;20047;-69
2022/06/26 01:19:09;;;;;;;11.20;6.93;;;;;;;23.02;57.94;100637.53;5031903;28;20041;-68
2022/06/26 01:21:36;;;;;;;8.10;7.25;;;;;;;23.04;57.79;100631.09;5032591;28;20029;-69
2022/06/26 01:24:02;;;;;;;7.80;6.65;;;;;;;23.01;58.08;100631.31;5032578;28;20057;-68
2022/06/26 01:26:28;;;;;;;7.93;6.93;;;;;;;22.96;58.33;100635.28;5031950;28;20485;-68
2022/06/26 01:28:54;;;;;;;9.15;7.25;;;;;;;22.92;58.41;100631.09;5032646;28;20041;-68
2022/06/26 01:31:20;;;;;;;7.82;7.00;;;;;;;22.86;58.50;100632.34;5012959;28;20056;-68
2022/06/26 01:33:49;;;;;;;7.15;6.45;;;;;;;22.78;58.40;100632.88;5015446;28;20057;-69
2022/06/26 01:36:16;;;;;;;8.10;6.50;;;;;;;22.91;58.29;100626.72;5032710;28;20037;-69
2022/06/26 01:38:42;;;;;;;9.10;8.05;;;;;;;22.89;58.72;100634.81;5031593;28;20044;-68
2022/06/26 01:41:08;;;;;;;8.30;7.00;;;;;;;22.85;58.72;100627.94;5031642;28;20040;-68
2022/06/26 01:43:37;;;;;;;7.78;7.00;;;;;;;22.78;58.70;100640.94;5033006;28;20041;-69
2022/06/26 01:46:04;;;;;;;6.78;6.07;;;;;;;22.81;58.56;100635.34;5031825;28;20405;-68
2022/06/26 01:48:35;;;;;;;8.98;6.40;;;;;;;22.89;58.47;100634.81;5026443;28;20037;-68
2022/06/26 01:51:02;;;;;;;8.90;8.00;;;;;;;22.93;58.36;100640.84;5011340;28;20037;-66
2022/06/26 01:53:28;;;;;;;10.95;7.57;;;;;;;22.95;58.36;100633.59;5032134;28;20042;-70
2022/06/26 01:55:54;;;;;;;9.23;7.22;;;;;;;22.93;58.56;100640.84;5031946;28;20354;-69
2022/06/26 01:58:19;;;;;;;10.15;7.90;;;;;;;22.87;58.79;100636.75;5030543;28;20037;-67
2022/06/26 02:00:47;;;;;;;7.82;6.82;;;;;;;22.84;58.62;100637.81;5032525;28;20509;-68
2022/06/26 02:03:17;;;;;;;10.07;7.53;;;;;;;22.84;59.05;100637.81;5031219;28;20045;-68
2022/06/26 02:05:45;;;;;;;13.90;10.15;;;;;;;22.77;59.02;100636.50;5037773;28;20108;-68
2022/06/26 02:08:13;;;;;;;11.77;8.85;;;;;;;22.74;59.12;100626.03;5039004;28;20259;-69
2022/06/26 02:13:36;;;;;;;11.90;9.00;;;;;;;22.79;58.71;100631.91;5024238;28;20095;-68
2022/06/26 02:16:16;;;;;;;9.10;8.13;;;;;;;22.76;59.60;100637.47;5054513;28;20041;-68
2022/06/26 02:18:45;;;;;;;10.68;8.18;;;;;;;22.78;59.14;100632.88;5037308;28;20481;-68
2022/06/26 02:21:13;;;;;;;8.88;7.72;;;;;;;22.72;59.24;100637.78;5021210;28;20487;-69
2022/06/26 02:23:40;;;;;;;11.25;8.32;;;;;;;22.80;59.12;100635.44;5038496;28;20045;-68
2022/06/26 02:26:07;;;;;;;9.60;8.52;;;;;;;22.73;59.30;100634.16;5020408;28;20025;-70
2022/06/26 02:28:33;;;;;;;9.15;7.70;;;;;;;22.75;58.98;100637.59;5039025;28;20104;-69
2022/06/26 02:30:59;;;;;;;9.07;7.75;;;;;;;22.85;58.95;100639.50;5037448;28;20172;-68
2022/06/26 02:33:29;;;;;;;10.10;7.25;;;;;;;22.81;59.13;100637.16;5038814;28;20037;-68
2022/06/26 02:35:55;;;;;;;9.05;6.38;;;;;;;22.82;58.74;100639.75;5021248;28;20055;-68
2022/06/26 02:38:22;;;;;;;7.07;6.38;;;;;;;22.81;59.06;100634.47;5037190;28;20045;-68
2022/06/26 02:40:48;;;;;;;8.00;7.20;;;;;;;22.82;58.96;100634.41;5037937;28;20033;-68
2022/06/26 02:43:14;;;;;;;10.30;7.55;;;;;;;22.88;58.73;100643.81;5039220;28;20143;-68
2022/06/26 02:45:40;;;;;;;7.45;6.43;;;;;;;22.95;58.52;100639.78;5013284;28;20061;-68
2022/06/26 02:48:05;;;;;;;8.63;7.05;;;;;;;23.02;58.44;100648.25;5037979;28;20473;-68
2022/06/26 02:50:31;;;;;;;9.07;6.65;;;;;;;23.14;57.84;100649.22;5020438;28;20048;-68
2022/06/26 02:52:56;;;;;;;9.77;6.32;;;;;;;23.19;57.58;100647.94;5038476;28;20044;-68
2022/06/26 02:55:21;;;;;;;8.38;6.38;;;;;;;23.30;57.44;100658.78;5038567;28;20036;-69
2022/06/26 02:57:47;;;;;;;10.07;8.05;;;;;;;23.26;57.69;100654.59;5037576;28;20041;-68
2022/06/26 03:00:14;;;;;;;8.10;7.07;;;;;;;23.21;57.81;100664.75;5038287;28;20554;-68
2022/06/26 03:02:44;;;;;;;7.50;6.70;;;;;;;23.17;57.82;100660.56;5021039;28;20099;-69
2022/06/26 03:05:10;;;;;;;9.45;6.28;;;;;;;23.07;58.10;100667.56;5037788;28;20052;-68
2022/06/26 03:07:35;;;;;;;8.02;7.22;;;;;;;23.10;57.95;100662.00;5038793;28;20366;-68
2022/06/26 03:10:01;;;;;;;6.43;5.82;;;;;;;23.13;57.97;100661.75;5002644;28;20511;-68
2022/06/26 03:12:26;;;;;;;7.45;6.03;;;;;;;23.20;57.57;100672.91;5038546;28;20040;-68
2022/06/26 03:14:52;;;;;;;6.53;5.78;;;;;;;23.24;57.40;100666.38;5019652;28;20033;-66
2022/06/26 03:17:17;;;;;;;6.68;5.50;;;;;;;23.33;57.40;100671.94;5016260;28;20120;-68
2022/06/26 03:19:45;;;;;;;6.88;5.80;;;;;;;23.38;56.95;100662.72;5018183;28;20225;-68
2022/06/26 03:22:11;;;;;;;7.50;6.70;;;;;;;23.39;57.14;100675.19;5033993;28;20041;-68
2022/06/26 03:24:36;;;;;;;6.50;5.85;;;;;;;23.42;57.00;100675.81;5035211;28;20044;-68
2022/06/26 03:27:03;;;;;;;9.98;7.25;;;;;;;23.45;57.09;100683.63;5034736;28;20038;-67
2022/06/26 03:29:29;;;;;;;8.98;6.95;;;;;;;23.45;57.17;100691.66;5010347;28;20116;-68
2022/06/26 03:31:55;;;;;;;8.07;6.65;;;;;;;23.54;56.89;100685.69;5000872;28;20116;-68
2022/06/26 03:34:21;;;;;;;8.35;6.57;;;;;;;23.68;56.64;100683.84;5000697;28;20544;-68
2022/06/26 03:36:46;;;;;;;6.75;6.13;;;;;;;23.76;56.19;100690.38;5034505;28;20034;-69
2022/06/26 03:39:12;;;;;;;6.07;5.47;;;;;;;23.84;56.00;100685.31;5034765;28;20080;-68
2022/06/26 03:41:38;;;;;;;7.72;7.03;;;;;;;23.76;56.39;100682.34;5017022;28;20392;-69
2022/06/26 03:44:03;;;;;;;8.27;6.82;;;;;;;23.81;56.39;100688.22;5034696;28;20029;-68
2022/06/26 03:46:29;;;;;;;6.18;5.57;;;;;;;23.92;55.98;100689.28;5016622;28;20033;-68
2022/06/26 03:48:55;;;;;;;8.00;7.03;;;;;;;24.01;56.18;100691.28;5033925;28;20033;-67
2022/06/26 03:51:20;;;;;;;8.45;5.80;;;;;;;24.03;55.87;100692.03;5034642;28;20037;-68
2022/06/26 03:53:46;;;;;;;6.43;5.45;;;;;;;24.04;55.76;100686.56;5016348;28;20041;-68
2022/06/26 03:56:11;;;;;;;7.38;5.72;;;;;;;24.12;55.59;100683.31;5034572;28;20128;-68
2022/06/26 03:58:37;;;;;;;7.18;6.13;;;;;;;24.24;55.42;100681.56;5034654;28;20052;-68
2022/06/26 04:01:02;;;;;;;8.23;7.13;;;;;;;24.31;55.22;100689.03;5033567;28;20030;-68
2022/06/26 04:03:28;;;;;;;6.97;5.38;;;;;;;24.29;55.29;100696.34;5016909;28;20043;-68
2022/06/26 04:05:53;;;;;;;7.20;5.95;;;;;;;24.41;54.96;100696.44;5033674;28;20029;-67
2022/06/26 04:08:21;;;;;;;8.32;6.32;;;;;;;24.48;54.76;100692.31;5015831;28;20060;-68
2022/06/26 04:10:47;;;;;;;7.13;5.60;;;;;;;24.55;54.73;100696.28;5034428;28;20038;-69
2022/06/26 04:13:13;;;;;;;9.05;6.60;;;;;;;24.64;54.47;100700.94;5015803;28;20136;-68
2022/06/26 04:15:40;;;;;;;6.95;6.25;;;;;;;24.73;54.57;100702.91;5034555;28;20048;-68
2022/06/26 04:18:06;;;;;;;8.35;6.50;;;;;;;24.77;54.53;100704.41;5033561;28;20060;-68
2022/06/26 04:20:32;;;;;;;7.20;6.28;;;;;;;24.87;54.17;100709.09;5016360;28;20132;-69
2022/06/26 04:23:05;;;;;;;6.15;5.28;;;;;;;24.92;54.06;100712.28;5031526;28;20397;-68
2022/06/26 04:25:32;;;;;;;7.35;6.65;;;;;;;24.97;53.93;100705.56;5033267;28;20087;-68
2022/06/26 04:27:57;;;;;;;5.93;5.40;;;;;;;25.04;53.83;100704.13;5015989;28;20087;-69
2022/06/26 04:30:24;;;;;;;7.97;6.88;;;;;;;24.99;53.91;100708.16;5015276;28;20065;-69
2022/06/26 04:32:49;;;;;;;7.85;6.55;;;;;;;25.00;53.84;100701.81;5033886;28;20037;-68
2022/06/26 04:35:15;;;;;;;9.40;5.65;;;;;;;25.13;53.42;100710.66;5033812;28;20095;-68
2022/06/26 04:37:41;;;;;;;8.30;6.75;;;;;;;25.17;53.81;100705.91;5033482;28;20037;-69
2022/06/26 04:40:08;;;;;;;7.43;6.00;;;;;;;25.31;53.43;100706.53;5033679;28;20064;-69
2022/06/26 04:42:39;;;;;;;6.75;6.15;;;;;;;25.40;53.73;100706.78;5033642;28;20033;-69
2022/06/26 04:45:05;;;;;;;6.60;5.85;;;;;;;25.39;53.63;100710.47;5032459;28;20025;-68
2022/06/26 04:47:31;;;;;;;6.35;5.75;;;;;;;25.50;53.45;100705.13;5033723;28;20065;-69
2022/06/26 04:49:57;;;;;;;5.68;5.18;;;;;;;25.62;52.71;100712.22;4996228;28;20076;-68
2022/06/26 04:52:22;;;;;;;6.03;5.35;;;;;;;25.73;52.56;100708.63;5033577;28;20030;-69
2022/06/26 04:54:48;;;;;;;6.65;5.30;;;;;;;25.85;52.20;100713.06;5015138;28;20033;-68
2022/06/26 04:57:13;;;;;;;5.32;4.82;;;;;;;26.05;51.62;100714.16;5033017;28;20102;-69
2022/06/26 04:59:39;;;;;;;5.05;4.55;;;;;;;26.18;50.85;100717.56;5031090;28;20045;-68
2022/06/26 05:02:06;;;;;;;6.65;5.43;;;;;;;26.26;50.63;100727.72;5032456;28;20045;-69
2022/06/26 05:04:31;;;;;;;6.18;5.57;;;;;;;26.47;50.19;100727.81;5033094;28;20045;-69
2022/06/26 05:06:57;;;;;;;6.63;6.03;;;;;;;26.52;50.00;100721.03;5030947;28;20029;-68
2022/06/26 05:09:23;;;;;;;5.63;5.03;;;;;;;26.57;49.83;100725.19;5032999;28;20099;-68
2022/06/26 05:11:49;;;;;;;5.80;4.63;;;;;;;26.72;49.37;100730.16;5033660;28;20045;-69
2022/06/26 05:14:15;;;;;;;7.03;4.60;;;;;;;26.82;49.42;100724.00;5033699;28;20477;-70
2022/06/26 05:16:41;;;;;;;6.65;4.65;;;;;;;26.92;49.04;100724.94;4997543;28;20133;-69
2022/06/26 05:19:07;;;;;;;4.95;4.55;;;;;;;27.01;48.89;100727.72;5013764;28;20072;-69
2022/06/26 05:21:32;;;;;;;5.28;4.63;;;;;;;27.10;48.34;100738.69;5033151;28;20135;-68
2022/06/26 05:23:58;;;;;;;8.43;5.18;;;;;;;27.18;48.23;100737.09;5030698;28;20072;-70
2022/06/26 05:26:24;;;;;;;4.75;4.35;;;;;;;27.25;48.30;100743.66;5033061;28;20061;-70
2022/06/26 05:28:52;;;;;;;6.68;4.32;;;;;;;27.34;47.98;100733.06;5033311;28;20061;-70
2022/06/26 05:31:18;;;;;;;5.70;4.70;;;;;;;27.39;47.77;100736.22;5032333;28;20056;-69
2022/06/26 05:33:43;;;;;;;5.55;4.65;;;;;;;27.47;47.33;100745.34;5018402;28;20473;-70
2022/06/26 05:36:09;;;;;;;5.57;5.05;;;;;;;27.51;47.09;100745.94;5032941;28;20052;-69
2022/06/26 05:38:35;;;;;;;6.32;4.85;;;;;;;27.59;46.82;100746.13;5031930;28;20037;-71
2022/06/26 05:41:04;;;;;;;7.20;5.30;;;;;;;27.64;46.68;100749.28;5032943;28;20041;-69
2022/06/26 05:43:30;;;;;;;5.05;4.63;;;;;;;27.67;46.47;100748.16;5030970;28;20038;-70
2022/06/26 05:45:56;;;;;;;4.88;4.38;;;;;;;27.82;46.11;100749.53;5031444;28;20032;-69
2022/06/26 05:48:21;;;;;;;4.40;4.00;;;;;;;27.90;46.08;100755.13;5029072;28;20120;-70
2022/06/26 05:50:47;;;;;;;5.70;4.22;;;;;;;28.00;45.63;100752.44;5012891;28;20107;-70
2022/06/26 05:53:13;;;;;;;5.03;4.47;;;;;;;28.08;45.59;100752.63;5031719;28;20121;-70
2022/06/26 05:55:38;;;;;;;5.45;4.90;;;;;;;28.15;45.39;100747.53;4998141;28;20041;-70
2022/06/26 05:58:06;;;;;;;4.93;4.50;;;;;;;28.23;45.24;100750.38;5046599;28;20040;-71
2022/06/26 06:00:32;;;;;;;5.28;4.30;;;;;;;28.29;45.21;100757.97;5025829;28;20037;-71
2022/06/26 06:02:57;;;;;;;5.10;4.63;;;;;;;28.40;44.90;100751.59;5014059;28;20033;-70
2022/06/26 06:05:25;;;;;;;6.18;4.20;;;;;;;28.50;44.85;100755.19;5014251;28;20109;-71
2022/06/26 06:07:51;;;;;;;4.90;4.40;;;;;;;28.55;44.79;100758.31;5014782;28;20026;-72
2022/06/26 06:10:19;;;;;;;7.70;4.90;;;;;;;28.65;44.50;100752.94;5031981;28;20063;-72
2022/06/26 06:12:45;;;;;;;9.02;4.85;;;;;;;28.73;44.30;100764.75;5015064;28;20030;-71
2022/06/26 06:15:13;;;;;;;5.30;4.70;;;;;;;28.83;44.03;100763.88;5031191;28;20041;-71
2022/06/26 06:17:42;;;;;;;5.45;4.75;;;;;;;28.85;43.72;100767.31;5016863;28;20451;-67
2022/06/26 06:20:17;;;;;;;5.40;4.80;;;;;;;28.92;43.33;100763.03;5031793;28;20124;-72
2022/06/26 06:22:53;;;;;;;5.53;4.63;;;;;;;28.98;43.40;100761.66;5032024;28;20051;-70
2022/06/26 06:25:19;;;;;;;6.07;4.28;;;;;;;29.01;43.38;100766.78;5032058;28;20452;-70
2022/06/26 06:27:45;;;;;;;7.78;4.45;;;;;;;29.07;43.40;100772.44;5047363;28;20057;-70
2022/06/26 06:30:12;;;;;;;4.80;4.40;;;;;;;29.15;43.18;100775.28;5046522;28;20060;-70
2022/06/26 06:32:38;;;;;;;4.85;4.25;;;;;;;29.25;43.33;100767.19;5014894;28;20109;-70
2022/06/26 06:35:04;;;;;;;8.43;4.40;;;;;;;29.29;43.08;100775.88;5014421;28;20545;-71
2022/06/26 06:37:29;;;;;;;7.30;4.57;;;;;;;29.36;42.94;100774.25;5014955;28;20400;-71
2022/06/26 06:39:55;;;;;;;5.40;4.40;;;;;;;29.41;42.49;100777.41;5014530;28;20100;-70
2022/06/26 06:42:20;;;;;;;7.85;4.53;;;;;;;29.47;42.71;100779.50;5031661;28;20485;-71
2022/06/26 06:44:45;;;;;;;5.85;4.90;;;;;;;29.51;42.75;100783.63;5031180;28;20034;-71
2022/06/26 06:47:14;;;;;;;7.13;4.28;;;;;;;29.52;42.62;100777.22;5030040;28;20065;-71
2022/06/26 06:49:40;;;;;;;6.75;4.80;;;;;;;29.59;42.26;100772.97;5031319;28;20045;-70
2022/06/26 06:52:06;;;;;;;4.70;4.30;;;;;;;29.68;42.13;100774.81;5035972;28;20048;-70
2022/06/26 06:54:32;;;;;;;4.88;4.13;;;;;;;29.73;42.20;100773.50;5036127;28;20043;-72
2022/06/26 06:56:57;;;;;;;8.52;5.00;;;;;;;29.78;41.67;100776.63;5018147;28;20120;-71
2022/06/26 06:59:23;;;;;;;5.68;4.60;;;;;;;29.84;41.54;100774.19;5035622;28;20120;-71
2022/06/26 07:01:49;;;;;;;5.32;4.45;;;;;;;29.90;41.44;100773.56;5017932;28;20029;-71
2022/06/26 07:04:17;;;;;;;7.55;4.40;;;;;;;29.99;41.36;100774.53;5035261;28;20034;-71
2022/06/26 07:06:43;;;;;;;5.63;4.55;;;;;;;30.02;41.06;100776.94;5035454;28;20108;-72
2022/06/26 07:09:09;;;;;;;5.40;4.80;;;;;;;30.05;40.87;100783.94;5035244;28;20059;-71
2022/06/26 07:11:34;;;;;;;5.22;4.75;;;;;;;30.13;40.85;100770.50;5035697;28;20030;-72
2022/06/26 07:14:02;;;;;;;4.50;4.10;;;;;;;30.15;41.03;100788.31;5017639;28;20029;-72
2022/06/26 07:16:27;;;;;;;4.80;4.40;;;;;;;30.25;40.68;100779.31;5017984;28;20053;-70
2022/06/26 07:18:53;;;;;;;4.72;4.25;;;;;;;30.30;40.66;100783.25;5035707;28;20428;-71
2022/06/26 07:21:21;;;;;;;4.40;3.92;;;;;;;30.32;40.42;100775.84;5017619;28;20033;-71
2022/06/26 07:23:46;;;;;;;4.75;4.35;;;;;;;30.38;40.21;100782.50;5017744;28;20068;-71
2022/06/26 07:26:12;;;;;;;9.02;4.57;;;;;;;30.36;40.09;100779.94;5000998;28;20045;-72
2022/06/26 07:28:37;;;;;;;6.30;4.40;;;;;;;30.42;40.13;100773.91;5035434;28;20034;-72
2022/06/26 07:31:06;;;;;;;6.63;3.88;;;;;;;30.49;39.94;100771.44;5034975;28;20431;-72
2022/06/26 07:36:16;;;;;;;5.35;4.32;;;;;;;30.64;39.38;100786.19;5020082;28;20055;-71
2022/06/26 07:38:42;;;;;;;7.03;4.53;;;;;;;30.69;39.42;100783.00;5035114;28;20053;-71
2022/06/26 07:41:08;;;;;;;4.30;3.88;;;;;;;30.78;39.26;100783.97;5000776;28;20555;-71
2022/06/26 07:43:33;;;;;;;4.60;4.20;;;;;;;30.80;39.31;100776.53;5035361;28;20037;-71
2022/06/26 07:45:59;;;;;;;4.10;3.70;;;;;;;30.86;38.92;100776.75;5034853;28;20487;-71
2022/06/26 07:48:24;;;;;;;5.57;3.75;;;;;;;30.91;38.70;100777.13;5017389;28;20040;-71
2022/06/26 07:50:50;;;;;;;6.80;4.28;;;;;;;30.86;39.18;100773.19;5017197;28;20071;-72
2022/06/26 07:53:15;;;;;;;5.05;3.83;;;;;;;30.93;38.90;100779.72;5033105;28;20048;-72
2022/06/26 07:55:43;;;;;;;4.82;3.85;;;;;;;31.01;38.67;100782.50;5034478;28;20041;-72
2022/06/26 07:58:09;;;;;;;5.60;4.40;;;;;;;30.99;38.62;100780.94;5016337;28;20447;-71
2022/06/26 08:00:34;;;;;;;4.65;3.85;;;;;;;31.07;37.97;100784.56;5034916;28;20098;-71
2022/06/26 08:03:11;;;;;;;4.93;3.40;;;;;;;31.17;37.72;100771.78;4999958;28;20042;-70
2022/06/26 08:05:38;;;;;;;4.80;3.83;;;;;;;31.27;37.78;100781.69;5028914;28;20040;-70
2022/06/26 08:08:05;;;;;;;4.25;3.75;;;;;;;31.31;37.82;100777.69;5034642;28;20037;-72
2022/06/26 08:10:31;;;;;;;4.15;3.47;;;;;;;31.44;37.58;100777.25;5034194;28;20044;-70
2022/06/26 08:12:57;;;;;;;4.57;3.72;;;;;;;31.40;37.19;100779.47;5033694;28;20037;-71
2022/06/26 08:15:23;;;;;;;4.38;3.33;;;;;;;31.54;37.01;100787.00;5033347;28;20041;-71
2022/06/26 08:17:49;;;;;;;3.83;3.53;;;;;;;31.49;36.98;100794.78;5000271;28;20492;-71
2022/06/26 08:20:15;;;;;;;4.22;3.38;;;;;;;31.53;36.72;100787.19;5014281;28;20167;-68
2022/06/26 08:22:40;;;;;;;4.03;3.50;;;;;;;31.59;36.71;100792.81;5014599;28;20037;-71
2022/06/26 08:25:07;;;;;;;5.07;3.30;;;;;;;31.70;36.59;100785.41;5029754;28;20414;-73
2022/06/26 08:27:32;;;;;;;3.50;3.20;;;;;;;31.77;36.11;100779.19;5012049;28;20044;-71
2022/06/26 08:29:58;;;;;;;3.17;2.88;;;;;;;31.82;35.75;100784.97;5033887;28;20037;-71
2022/06/26 08:32:23;;;;;;;6.97;3.38;;;;;;;31.86;35.82;100782.81;5017192;28;20033;-72
2022/06/26 08:34:49;;;;;;;3.40;3.08;;;;;;;31.88;35.46;100781.66;5003160;28;20583;-71
2022/06/26 08:37:16;;;;;;;6.50;3.05;;;;;;;31.86;35.74;100783.66;5014632;28;20044;-72
2022/06/26 08:39:43;;;;;;;4.20;2.88;;;;;;;31.86;35.37;100778.22;5013596;28;20072;-69
2022/06/26 08:42:09;;;;;;;4.90;3.33;;;;;;;31.93;35.73;100777.59;4998515;28;20092;-71
2022/06/26 08:44:41;;;;;;;6.32;3.40;;;;;;;31.87;35.33;100779.09;5016147;28;20033;-71
2022/06/26 08:47:07;;;;;;;;;;;;;;;31.97;34.92;100774.41;5033186;28;20401;-70
2022/06/26 08:49:32;;;;;;;4.70;2.58;;;;;;;32.01;35.18;100775.78;5034128;28;19921;-71
2022/06/26 08:51:58;;;;;;;2.45;2.22;;;;;;;32.11;34.96;100772.91;5013949;28;20033;-69
2022/06/26 08:54:27;;;;;;;4.30;3.08;;;;;;;32.06;33.72;100767.97;5033174;28;20035;-70
2022/06/26 08:56:53;;;;;;;7.32;3.10;;;;;;;32.18;34.66;100773.13;5033936;28;20137;-72
2022/06/26 08:59:18;;;;;;;3.38;2.97;;;;;;;32.17;34.45;100775.00;5025407;28;20552;-71
2022/06/26 09:01:44;;;;;;;5.97;2.70;;;;;;;32.22;34.54;100769.06;5033624;28;20033;-71
2022/06/26 09:04:11;;;;;;;3.15;2.70;;;;;;;32.26;34.27;100776.72;5015603;28;20443;-71
2022/06/26 09:06:37;;;;;;;4.25;2.70;;;;;;;32.28;34.19;100773.84;5033314;28;20432;-71
2022/06/26 09:09:23;;;;;;;3.85;2.83;;;;;;;32.35;34.17;100766.72;5032103;28;20053;-72
2022/06/26 09:11:49;;;;;;;3.00;2.38;;;;;;;32.45;34.15;100767.47;5029405;28;20068;-73
2022/06/26 09:14:15;;;;;;;3.17;2.88;;;;;;;32.40;33.94;100764.41;5033442;28;20412;-72
2022/06/26 09:16:46;;;;;;;4.32;2.63;;;;;;;32.51;33.40;100765.94;5015974;28;20044;-72
2022/06/26 09:19:18;;;;;;;2.67;2.47;;;;;;;32.54;33.52;100766.47;5032737;28;20026;-70
2022/06/26 09:21:44;;;;;;;;;;;;;;;32.59;32.08;100771.38;5033839;28;20033;-72
2022/06/26 09:24:14;;;;;;;2.42;2.22;;;;;;;32.58;33.79;100766.97;5032629;28;19909;-71
2022/06/26 09:26:42;;;;;;;5.10;2.60;;;;;;;32.62;33.49;100771.06;5033324;28;20041;-72
2022/06/26 09:29:13;;;;;;;6.63;2.53;;;;;;;32.76;33.39;100770.41;5032614;28;20029;-71
2022/06/26 09:31:39;;;;;;;3.53;2.40;;;;;;;32.71;33.15;100766.47;5016293;28;20455;-72
2022/06/26 09:34:06;;;;;;;6.18;2.78;;;;;;;32.69;33.01;100772.09;4996563;28;20091;-72
2022/06/26 09:36:33;;;;;;;2.67;2.30;;;;;;;32.72;32.85;100770.94;5032946;28;20037;-70
2022/06/26 09:38:59;;;;;;;3.50;2.20;;;;;;;32.78;32.30;100764.81;5015014;28;20033;-71
2022/06/26 09:41:34;;;;;;;2.13;1.92;;;;;;;32.86;30.99;100781.13;5032870;28;20374;-70
2022/06/26 09:44:02;;;;;;;3.58;2.40;;;;;;;32.97;32.03;100775.41;5032708;28;20527;-70
2022/06/26 09:46:32;;;;;;;3.28;2.60;;;;;;;32.95;31.60;100774.69;5012096;28;20049;-72
2022/06/26 09:48:59;;;;;;;2.67;2.33;;;;;;;33.14;31.95;100772.69;5032396;28;20033;-69
2022/06/26 09:51:25;;;;;;;4.25;2.33;;;;;;;33.19;31.89;100767.56;5033118;28;20033;-69
2022/06/26 09:53:52;;;;;;;6.68;2.42;;;;;;;33.22;31.93;100778.13;5015017;28;20393;-69
2022/06/26 09:56:20;;;;;;;5.03;2.70;;;;;;;33.27;31.52;100781.16;5011015;28;20037;-69
2022/06/26 09:58:45;;;;;;;2.85;2.60;;;;;;;33.24;31.39;100778.81;5031115;28;20124;-69
2022/06/26 10:06:43;;;;;;;4.72;1.90;;;;;;;33.99;30.04;100768.50;5033829;28;20520;-68
2022/06/26 10:09:10;;;;;;;2.05;1.85;;;;;;;34.15;29.16;100774.88;5033741;28;20057;-68
2022/06/26 10:11:38;;;;;;;4.68;2.38;;;;;;;34.32;28.65;100766.44;5033342;28;20545;-68
2022/06/26 10:14:17;;;;;;;3.72;2.30;;;;;;;34.36;27.95;100772.41;5033731;28;20104;-68
2022/06/26 10:16:52;;;;;;;2.67;2.10;;;;;;;34.30;27.15;100771.22;5033727;28;20041;-68
2022/06/26 10:19:26;;;;;;;3.75;2.25;;;;;;;34.15;26.69;100777.59;5033125;28;20033;-68
2022/06/26 10:21:53;;;;;;;2.67;1.90;;;;;;;34.07;27.53;100771.19;5033285;28;20033;-68
2022/06/26 10:24:18;;;;;;;2.47;2.10;;;;;;;33.87;27.79;100769.84;5015466;28;20131;-68
2022/06/26 10:26:58;;;;;;;1.70;1.60;;;;;;;33.90;27.20;100761.31;5036932;28;20120;-68
2022/06/26 10:29:38;;;;;;;2.08;1.80;;;;;;;33.97;27.19;100758.75;5037252;28;20083;-68
2022/06/26 10:32:05;;;;;;;2.80;2.20;;;;;;;33.95;28.22;100763.50;5037268;28;20116;-68
2022/06/26 10:34:31;;;;;;;3.47;2.03;;;;;;;33.90;28.54;100755.03;5036872;28;20033;-68
2022/06/26 10:37:10;;;;;;;2.20;2.00;;;;;;;34.01;27.88;100766.41;5019939;28;20033;-69
2022/06/26 10:39:38;;;;;;;3.15;2.00;;;;;;;34.13;27.80;100758.72;5037022;28;20030;-68
2022/06/26 10:44:58;;;;;;;3.28;2.17;;;;;;;34.06;28.30;100758.56;5037194;28;20039;-68
2022/06/26 10:47:23;;;;;;;4.47;2.10;;;;;;;34.00;28.27;100755.72;5019546;28;20124;-67
2022/06/26 10:49:51;;;;;;;3.20;2.10;;;;;;;34.04;28.30;100765.22;5003044;28;20124;-68
2022/06/26 10:52:25;;;;;;;2.35;2.08;;;;;;;34.08;27.71;100772.88;5036458;28;20084;-68
2022/06/26 10:54:52;;;;;;;3.38;2.28;;;;;;;34.06;28.04;100753.09;5036624;28;20045;-68
2022/06/26 10:57:41;;;;;;;2.67;2.15;;;;;;;34.15;27.88;100755.78;5036873;28;20029;-67
2022/06/26 11:00:12;;;;;;;4.63;2.35;;;;;;;34.24;27.39;100760.19;5019388;28;20140;-67
2022/06/26 11:02:44;;;;;;;3.70;2.25;;;;;;;34.27;27.67;100765.28;5036735;28;20047;-67
2022/06/26 11:05:11;;;;;;;2.40;2.10;;;;;;;34.01;28.09;100765.56;5018759;28;20090;-68
2022/06/26 11:07:49;;;;;;;2.25;2.05;;;;;;;34.01;27.25;100765.56;5018677;28;20045;-67
2022/06/26 11:10:22;;;;;;;2.30;2.10;;;;;;;34.25;27.72;100767.34;5035868;28;20041;-67
2022/06/26 11:12:52;;;;;;;2.70;1.85;;;;;;;34.28;27.38;100767.84;5018897;28;20092;-68
2022/06/26 11:15:33;;;;;;;3.33;2.03;;;;;;;34.28;27.02;100764.25;5018661;28;20037;-68
2022/06/26 11:17:58;;;;;;;2.33;2.10;;;;;;;34.15;27.68;100763.97;5036256;28;20033;-67
2022/06/26 11:23:27;;;;;;;3.80;2.40;;;;;;;34.22;26.93;100767.69;5036328;28;20045;-68
2022/06/26 11:25:56;;;;;;;2.72;2.20;;;;;;;34.40;27.62;100760.09;5036215;28;20042;-68
2022/06/26 11:28:33;;;;;;;2.38;2.10;;;;;;;34.39;27.10;100761.09;5036001;28;20061;-68
2022/06/26 11:31:00;;;;;;;2.53;2.22;;;;;;;34.51;27.46;100767.91;5018798;28;20139;-68
2022/06/26 11:33:29;;;;;;;2.50;2.10;;;;;;;34.64;26.99;100758.28;5036054;28;20037;-68
2022/06/26 11:35:59;;;;;;;3.75;2.15;;;;;;;34.70;27.28;100754.81;5035725;28;20090;-68
2022/06/26 11:38:25;;;;;;;2.13;2.00;;;;;;;34.83;26.96;100760.50;5035001;28;20037;-68
2022/06/26 11:40:50;;;;;;;2.15;1.95;;;;;;;34.92;27.10;100753.97;5035943;28;20484;-68